»·PEaware :: PSV1 KLAS-KBUR

PSV1 :: KLAS-KBUR

FLIGHT INFORMATION

Flight Status: Arrived
Operator:
Power Set Virtual (website)
More flights by this operator :: More flights under this callsign
Pilot: Max W. (2591)
Aircraft: BOEING 737-800
(B738)
More flights by this aircraft type
Origin: KLAS McCarran Intl
United States
Destination: KBUR Bob Hope-Burbank
United States
More flights between these airports :: More routes between these airports
Route: BOACH8 WHIGG KREME JANNY5
File this flight plan on PilotEdge
Remarks:
Altitude:
(Current/Filed)
26,000ft
Speed:
(Current/Filed)
430kts
Departed: 28-Jul-20 03:41 PM
Arrived: 28-Jul-20 04:23 PM
Distance/Time
Traveled:
194nm/0:42
Distance/Time
To Go:
Arrived

Flight Plot

Page will automatically refresh every two minutes.


Map Options




Map Legend


Flown Route
Filed Route
Departure Airport
Arrival Airport
Navaid (VOR, NDB)
Fix

Horizontal Profiles

Position Reports

Time Latitude Longitude Heading Altitude Ground
Speed
28-Jul-20 15:26 36.079522 -115.146735 28 2189ft 0kts
28-Jul-20 15:27 36.079521 -115.146735 28 2189ft 0kts
28-Jul-20 15:28 36.079521 -115.146735 28 2189ft 0kts
28-Jul-20 15:29 36.079521 -115.146735 28 2189ft 0kts
28-Jul-20 15:30 36.079521 -115.146735 28 2189ft 0kts
28-Jul-20 15:31 36.079521 -115.146735 28 2189ft 0kts
28-Jul-20 15:32 36.079521 -115.146735 28 2189ft 0kts
28-Jul-20 15:32 36.079521 -115.146735 28 2189ft 0kts
28-Jul-20 15:34 36.079239 -115.147384 112 2189ft 2kts
28-Jul-20 15:35 36.079376 -115.147604 138 2189ft 0kts
28-Jul-20 15:35 36.079016 -115.147338 155 2189ft 11kts
28-Jul-20 15:37 36.078054 -115.152004 269 2189ft 16kts
28-Jul-20 15:37 36.078037 -115.158097 269 2189ft 21kts
28-Jul-20 15:38 36.077598 -115.161271 185 2189ft 0kts
28-Jul-20 15:40 36.076617 -115.161308 175 2189ft 10kts
28-Jul-20 15:40 36.076452 -115.136988 90 2222ft 177kts
28-Jul-20 15:41 36.076214 -115.070945 89 4137ft 231kts
28-Jul-20 15:42 36.067523 -114.980914 117 6350ft 283kts
28-Jul-20 15:43 36.007311 -114.920522 167 9306ft 294kts
28-Jul-20 15:44 35.925014 -114.946460 219 10548ft 358kts
28-Jul-20 15:45 35.853840 -115.033871 224 12771ft 376kts
28-Jul-20 15:46 35.783708 -115.131826 230 15041ft 388kts
28-Jul-20 15:47 35.714935 -115.235197 231 17233ft 396kts
28-Jul-20 15:48 35.641779 -115.339220 229 19101ft 408kts
28-Jul-20 15:49 35.564688 -115.443802 229 20891ft 418kts
28-Jul-20 15:50 35.487933 -115.551051 232 22885ft 418kts
28-Jul-20 15:51 35.406346 -115.653897 225 24250ft 433kts
28-Jul-20 15:52 35.324355 -115.749100 225 25582ft 441kts
28-Jul-20 15:53 35.234004 -115.853876 225 25864ft 456kts
28-Jul-20 15:54 35.141142 -115.961408 225 25862ft 448kts
28-Jul-20 15:55 35.050299 -116.066497 225 25897ft 456kts
28-Jul-20 15:56 34.959390 -116.171436 225 25136ft 439kts
28-Jul-20 15:57 34.895282 -116.285450 244 23928ft 398kts
28-Jul-20 15:58 34.845640 -116.408964 245 23948ft 404kts
28-Jul-20 15:59 34.800687 -116.532923 253 23448ft 387kts
28-Jul-20 16:00 34.779767 -116.657619 261 22841ft 392kts
28-Jul-20 16:01 34.767662 -116.767500 262 22024ft 390kts
28-Jul-20 16:02 34.754265 -116.899484 262 22025ft 390kts
28-Jul-20 16:03 34.740939 -117.030211 262 22017ft 390kts
28-Jul-20 16:04 34.727618 -117.161149 262 22005ft 390kts
28-Jul-20 16:05 34.714223 -117.291833 262 21957ft 385kts
28-Jul-20 16:06 34.700354 -117.425341 263 18208ft 402kts
28-Jul-20 16:07 34.685894 -117.559411 262 15008ft 397kts
28-Jul-20 16:08 34.672177 -117.690616 261 14069ft 403kts
28-Jul-20 16:09 34.659144 -117.823548 262 14073ft 400kts
28-Jul-20 16:10 34.646020 -117.958017 261 13076ft 394kts
28-Jul-20 16:11 34.628165 -118.086049 250 10337ft 377kts
28-Jul-20 16:12 34.603224 -118.192883 253 9523ft 301kts
28-Jul-20 16:13 34.581490 -118.288544 254 8050ft 291kts
28-Jul-20 16:14 34.559911 -118.384726 253 8036ft 294kts
28-Jul-20 16:15 34.512596 -118.460505 202 7029ft 282kts
28-Jul-20 16:16 34.436323 -118.457940 174 6368ft 258kts
28-Jul-20 16:17 34.371528 -118.464521 187 5364ft 213kts
28-Jul-20 16:18 34.332770 -118.434322 94 4519ft 195kts
28-Jul-20 16:19 34.306056 -118.386475 162 3005ft 170kts
28-Jul-20 16:20 34.261559 -118.373678 170 2516ft 176kts
28-Jul-20 16:21 34.216792 -118.361711 168 962ft 156kts
28-Jul-20 16:22 34.196012 -118.355425 7 786ft 6kts

Navigation Log

Ident Type
Flight plan parsing failed, navigation log unavailable